sensor_id;sensor_type;location;lat;lon;timestamp;temperature;humidity
56300;DHT22;42209;6.376;-10.782;2023-05-20T00:01:38;22.90;65.60
56300;DHT22;42209;6.376;-10.782;2023-05-20T00:04:06;23.10;67.20
56300;DHT22;42209;6.376;-10.782;2023-05-20T00:08:35;23.00;61.10
56300;DHT22;42209;6.376;-10.782;2023-05-20T00:13:11;23.10;62.60
56300;DHT22;42209;6.376;-10.782;2023-05-20T00:15:40;23.20;65.60
56300;DHT22;42209;6.376;-10.782;2023-05-20T00:18:08;23.10;63.00
56300;DHT22;42209;6.376;-10.782;2023-05-20T00:20:37;22.90;59.10
56300;DHT22;42209;6.376;-10.782;2023-05-20T00:23:06;22.70;56.80
56300;DHT22;42209;6.376;-10.782;2023-05-20T00:25:34;22.60;55.80
56300;DHT22;42209;6.376;-10.782;2023-05-20T00:28:04;22.40;54.30
56300;DHT22;42209;6.376;-10.782;2023-05-20T00:30:33;22.30;58.80
56300;DHT22;42209;6.376;-10.782;2023-05-20T00:33:02;22.50;62.30
56300;DHT22;42209;6.376;-10.782;2023-05-20T00:35:30;22.70;64.20
56300;DHT22;42209;6.376;-10.782;2023-05-20T00:37:59;22.90;66.30
56300;DHT22;42209;6.376;-10.782;2023-05-20T00:40:28;23.10;67.10
56300;DHT22;42209;6.376;-10.782;2023-05-20T00:42:56;23.00;60.30
56300;DHT22;42209;6.376;-10.782;2023-05-20T00:45:25;22.80;57.60
56300;DHT22;42209;6.376;-10.782;2023-05-20T00:47:54;22.50;55.70
56300;DHT22;42209;6.376;-10.782;2023-05-20T00:50:22;22.40;55.60
56300;DHT22;42209;6.376;-10.782;2023-05-20T00:52:58;22.50;61.60
56300;DHT22;42209;6.376;-10.782;2023-05-20T00:55:27;22.70;64.10
56300;DHT22;42209;6.376;-10.782;2023-05-20T00:58:07;22.90;66.20
56300;DHT22;42209;6.376;-10.782;2023-05-20T01:00:38;23.00;65.80
56300;DHT22;42209;6.376;-10.782;2023-05-20T01:03:07;22.90;59.50
56300;DHT22;42209;6.376;-10.782;2023-05-20T01:05:35;22.70;56.90
56300;DHT22;42209;6.376;-10.782;2023-05-20T01:08:08;22.50;55.60
56300;DHT22;42209;6.376;-10.782;2023-05-20T01:10:41;22.50;61.60
56300;DHT22;42209;6.376;-10.782;2023-05-20T01:13:28;22.60;64.50
56300;DHT22;42209;6.376;-10.782;2023-05-20T01:15:59;22.80;66.40
56300;DHT22;42209;6.376;-10.782;2023-05-20T01:18:30;23.00;67.80
56300;DHT22;42209;6.376;-10.782;2023-05-20T01:21:01;23.00;62.10
56300;DHT22;42209;6.376;-10.782;2023-05-20T01:23:37;22.80;58.50
56300;DHT22;42209;6.376;-10.782;2023-05-20T01:26:08;22.50;56.60
56300;DHT22;42209;6.376;-10.782;2023-05-20T01:28:37;22.40;61.20
56300;DHT22;42209;6.376;-10.782;2023-05-20T01:31:13;22.60;65.30
56300;DHT22;42209;6.376;-10.782;2023-05-20T01:33:43;22.80;66.60
56300;DHT22;42209;6.376;-10.782;2023-05-20T01:36:12;23.00;68.10
56300;DHT22;42209;6.376;-10.782;2023-05-20T01:38:41;23.00;62.40
56300;DHT22;42209;6.376;-10.782;2023-05-20T01:41:11;22.80;58.60
56300;DHT22;42209;6.376;-10.782;2023-05-20T01:43:39;22.50;56.70
56300;DHT22;42209;6.376;-10.782;2023-05-20T01:46:08;22.40;55.80
56300;DHT22;42209;6.376;-10.782;2023-05-20T01:48:36;22.40;62.00
56300;DHT22;42209;6.376;-10.782;2023-05-20T01:51:05;22.60;64.40
56300;DHT22;42209;6.376;-10.782;2023-05-20T01:53:33;22.80;66.20
56300;DHT22;42209;6.376;-10.782;2023-05-20T01:56:03;23.00;68.00
56300;DHT22;42209;6.376;-10.782;2023-05-20T01:58:32;22.90;61.50
56300;DHT22;42209;6.376;-10.782;2023-05-20T02:01:00;22.70;58.90
56300;DHT22;42209;6.376;-10.782;2023-05-20T02:03:30;22.50;57.10
56300;DHT22;42209;6.376;-10.782;2023-05-20T02:05:58;22.40;56.00
56300;DHT22;42209;6.376;-10.782;2023-05-20T02:08:27;22.30;60.70
56300;DHT22;42209;6.376;-10.782;2023-05-20T02:10:55;22.50;64.10
56300;DHT22;42209;6.376;-10.782;2023-05-20T02:13:23;22.80;65.90
56300;DHT22;42209;6.376;-10.782;2023-05-20T02:15:52;22.90;67.40
56300;DHT22;42209;6.376;-10.782;2023-05-20T02:18:20;23.00;64.10
56300;DHT22;42209;6.376;-10.782;2023-05-20T02:20:48;22.80;59.50
56300;DHT22;42209;6.376;-10.782;2023-05-20T02:23:17;22.60;57.20
56300;DHT22;42209;6.376;-10.782;2023-05-20T02:25:45;22.40;57.30
56300;DHT22;42209;6.376;-10.782;2023-05-20T02:28:13;22.50;63.20
56300;DHT22;42209;6.376;-10.782;2023-05-20T02:30:42;22.60;65.50
56300;DHT22;42209;6.376;-10.782;2023-05-20T02:33:10;22.80;67.50
56300;DHT22;42209;6.376;-10.782;2023-05-20T02:35:39;23.00;68.90
56300;DHT22;42209;6.376;-10.782;2023-05-20T02:38:07;22.90;63.00
56300;DHT22;42209;6.376;-10.782;2023-05-20T02:40:38;22.70;59.80
56300;DHT22;42209;6.376;-10.782;2023-05-20T02:43:08;22.50;58.00
56300;DHT22;42209;6.376;-10.782;2023-05-20T02:45:36;22.40;56.60
56300;DHT22;42209;6.376;-10.782;2023-05-20T02:48:05;22.40;62.90
56300;DHT22;42209;6.376;-10.782;2023-05-20T02:50:39;22.60;65.60
56300;DHT22;42209;6.376;-10.782;2023-05-20T02:53:07;22.80;67.50
56300;DHT22;42209;6.376;-10.782;2023-05-20T02:55:36;22.90;67.40
56300;DHT22;42209;6.376;-10.782;2023-05-20T02:58:05;22.80;61.10
56300;DHT22;42209;6.376;-10.782;2023-05-20T03:00:34;22.60;58.60
56300;DHT22;42209;6.376;-10.782;2023-05-20T03:03:02;22.50;56.80
56300;DHT22;42209;6.376;-10.782;2023-05-20T03:05:31;22.50;62.70
56300;DHT22;42209;6.376;-10.782;2023-05-20T03:07:59;22.60;65.60
56300;DHT22;42209;6.376;-10.782;2023-05-20T03:10:28;22.80;67.80
56300;DHT22;42209;6.376;-10.782;2023-05-20T03:12:56;23.00;69.20
56300;DHT22;42209;6.376;-10.782;2023-05-20T03:15:25;23.00;63.40
56300;DHT22;42209;6.376;-10.782;2023-05-20T03:17:53;22.80;59.80
56300;DHT22;42209;6.376;-10.782;2023-05-20T03:20:22;22.50;57.80
56300;DHT22;42209;6.376;-10.782;2023-05-20T03:22:50;22.40;61.60
56300;DHT22;42209;6.376;-10.782;2023-05-20T03:25:19;22.50;65.40
56300;DHT22;42209;6.376;-10.782;2023-05-20T03:27:49;22.70;66.90
56300;DHT22;42209;6.376;-10.782;2023-05-20T03:30:19;22.90;69.20
56300;DHT22;42209;6.376;-10.782;2023-05-20T03:32:47;23.00;64.60
56300;DHT22;42209;6.376;-10.782;2023-05-20T03:35:16;22.80;61.10
56300;DHT22;42209;6.376;-10.782;2023-05-20T03:37:44;22.50;58.40
56300;DHT22;42209;6.376;-10.782;2023-05-20T03:40:13;22.40;59.10
56300;DHT22;42209;6.376;-10.782;2023-05-20T03:42:41;22.50;64.70
56300;DHT22;42209;6.376;-10.782;2023-05-20T03:45:12;22.70;66.70
56300;DHT22;42209;6.376;-10.782;2023-05-20T03:48:02;22.90;68.40
56300;DHT22;42209;6.376;-10.782;2023-05-20T03:50:33;23.00;66.40
56300;DHT22;42209;6.376;-10.782;2023-05-20T03:53:01;22.80;61.00
56300;DHT22;42209;6.376;-10.782;2023-05-20T03:55:36;22.60;58.50
56300;DHT22;42209;6.376;-10.782;2023-05-20T03:58:05;22.40;57.10
56300;DHT22;42209;6.376;-10.782;2023-05-20T04:00:33;22.40;63.30
56300;DHT22;42209;6.376;-10.782;2023-05-20T04:03:02;22.60;66.00
56300;DHT22;42209;6.376;-10.782;2023-05-20T04:05:30;22.80;67.70
56300;DHT22;42209;6.376;-10.782;2023-05-20T04:08:02;22.90;68.90
56300;DHT22;42209;6.376;-10.782;2023-05-20T04:10:30;23.00;65.00
56300;DHT22;42209;6.376;-10.782;2023-05-20T04:12:59;22.70;60.10
56300;DHT22;42209;6.376;-10.782;2023-05-20T04:15:27;22.50;58.00
56300;DHT22;42209;6.376;-10.782;2023-05-20T04:17:57;22.40;61.40
56300;DHT22;42209;6.376;-10.782;2023-05-20T04:20:26;22.50;65.00
56300;DHT22;42209;6.376;-10.782;2023-05-20T04:22:56;22.70;66.90
56300;DHT22;42209;6.376;-10.782;2023-05-20T04:25:25;22.90;68.40
56300;DHT22;42209;6.376;-10.782;2023-05-20T04:27:53;23.00;68.30
56300;DHT22;42209;6.376;-10.782;2023-05-20T04:30:22;22.80;61.90
56300;DHT22;42209;6.376;-10.782;2023-05-20T04:32:50;22.60;58.90
56300;DHT22;42209;6.376;-10.782;2023-05-20T04:35:19;22.40;60.30
56300;DHT22;42209;6.376;-10.782;2023-05-20T04:37:49;22.50;64.90
56300;DHT22;42209;6.376;-10.782;2023-05-20T04:40:17;22.70;67.00
56300;DHT22;42209;6.376;-10.782;2023-05-20T04:42:46;22.80;68.70
56300;DHT22;42209;6.376;-10.782;2023-05-20T04:45:15;22.90;69.30
56300;DHT22;42209;6.376;-10.782;2023-05-20T04:47:44;22.80;62.20
56300;DHT22;42209;6.376;-10.782;2023-05-20T04:50:18;22.60;59.30
56300;DHT22;42209;6.376;-10.782;2023-05-20T04:52:54;22.40;57.50
56300;DHT22;42209;6.376;-10.782;2023-05-20T04:55:22;22.30;62.40
56300;DHT22;42209;6.376;-10.782;2023-05-20T04:57:51;22.50;65.80
56300;DHT22;42209;6.376;-10.782;2023-05-20T05:00:19;22.70;67.90
56300;DHT22;42209;6.376;-10.782;2023-05-20T05:02:53;22.80;69.00
56300;DHT22;42209;6.376;-10.782;2023-05-20T05:05:21;22.90;67.40
56300;DHT22;42209;6.376;-10.782;2023-05-20T05:07:49;22.70;62.10
56300;DHT22;42209;6.376;-10.782;2023-05-20T05:10:18;22.50;59.50
56300;DHT22;42209;6.376;-10.782;2023-05-20T05:12:47;22.20;59.40
56300;DHT22;42209;6.376;-10.782;2023-05-20T05:15:15;22.40;64.70
56300;DHT22;42209;6.376;-10.782;2023-05-20T05:17:44;22.50;67.30
56300;DHT22;42209;6.376;-10.782;2023-05-20T05:20:14;22.70;68.80
56300;DHT22;42209;6.376;-10.782;2023-05-20T05:22:44;22.90;70.60
56300;DHT22;42209;6.376;-10.782;2023-05-20T05:25:12;22.90;65.00
56300;DHT22;42209;6.376;-10.782;2023-05-20T05:27:42;22.60;61.00
56300;DHT22;42209;6.376;-10.782;2023-05-20T05:30:10;22.40;59.10
56300;DHT22;42209;6.376;-10.782;2023-05-20T05:32:39;22.30;64.10
56300;DHT22;42209;6.376;-10.782;2023-05-20T05:35:08;22.50;67.10
56300;DHT22;42209;6.376;-10.782;2023-05-20T05:37:36;22.70;68.90
56300;DHT22;42209;6.376;-10.782;2023-05-20T05:40:07;22.90;70.50
56300;DHT22;42209;6.376;-10.782;2023-05-20T05:42:35;23.00;69.70
56300;DHT22;42209;6.376;-10.782;2023-05-20T05:45:06;22.80;63.10
56300;DHT22;42209;6.376;-10.782;2023-05-20T05:47:36;22.60;60.20
56300;DHT22;42209;6.376;-10.782;2023-05-20T05:50:04;22.40;60.90
56300;DHT22;42209;6.376;-10.782;2023-05-20T05:52:34;22.40;65.80
56300;DHT22;42209;6.376;-10.782;2023-05-20T05:55:03;22.60;68.70
56300;DHT22;42209;6.376;-10.782;2023-05-20T05:57:32;22.80;69.50
56300;DHT22;42209;6.376;-10.782;2023-05-20T06:00:01;22.90;70.00
56300;DHT22;42209;6.376;-10.782;2023-05-20T06:02:44;22.80;62.90
56300;DHT22;42209;6.376;-10.782;2023-05-20T06:05:25;22.50;59.70
56300;DHT22;42209;6.376;-10.782;2023-05-20T06:08:00;22.20;61.60
56300;DHT22;42209;6.376;-10.782;2023-05-20T06:10:32;22.40;66.10
56300;DHT22;42209;6.376;-10.782;2023-05-20T06:13:00;22.60;68.30
56300;DHT22;42209;6.376;-10.782;2023-05-20T06:15:31;22.80;69.60
56300;DHT22;42209;6.376;-10.782;2023-05-20T06:18:01;22.90;69.00
56300;DHT22;42209;6.376;-10.782;2023-05-20T06:20:32;22.80;62.20
56300;DHT22;42209;6.376;-10.782;2023-05-20T06:23:01;22.50;59.80
56300;DHT22;42209;6.376;-10.782;2023-05-20T06:25:41;22.30;60.20
56300;DHT22;42209;6.376;-10.782;2023-05-20T06:28:09;22.40;65.30
56300;DHT22;42209;6.376;-10.782;2023-05-20T06:30:38;22.60;68.00
56300;DHT22;42209;6.376;-10.782;2023-05-20T06:33:06;22.80;69.40
56300;DHT22;42209;6.376;-10.782;2023-05-20T06:35:35;22.90;71.00
56300;DHT22;42209;6.376;-10.782;2023-05-20T06:38:04;22.80;63.50
56300;DHT22;42209;6.376;-10.782;2023-05-20T06:40:33;22.50;60.30
56300;DHT22;42209;6.376;-10.782;2023-05-20T06:43:08;22.20;60.30
56300;DHT22;42209;6.376;-10.782;2023-05-20T06:45:54;22.30;64.80
56300;DHT22;42209;6.376;-10.782;2023-05-20T06:48:46;22.50;67.70
56300;DHT22;42209;6.376;-10.782;2023-05-20T06:51:16;22.70;69.80
56300;DHT22;42209;6.376;-10.782;2023-05-20T06:53:47;22.80;71.10
56300;DHT22;42209;6.376;-10.782;2023-05-20T06:56:16;22.90;73.20
56300;DHT22;42209;6.376;-10.782;2023-05-20T06:58:44;22.80;66.80
56300;DHT22;42209;6.376;-10.782;2023-05-20T07:01:20;22.50;62.70
56300;DHT22;42209;6.376;-10.782;2023-05-20T07:03:49;22.30;61.20
56300;DHT22;42209;6.376;-10.782;2023-05-20T07:06:19;22.30;66.10
56300;DHT22;42209;6.376;-10.782;2023-05-20T07:08:48;22.50;68.30
56300;DHT22;42209;6.376;-10.782;2023-05-20T07:11:16;22.60;69.70
56300;DHT22;42209;6.376;-10.782;2023-05-20T07:13:45;22.80;72.00
56300;DHT22;42209;6.376;-10.782;2023-05-20T07:16:13;22.90;73.40
56300;DHT22;42209;6.376;-10.782;2023-05-20T07:18:47;22.80;66.10
56300;DHT22;42209;6.376;-10.782;2023-05-20T07:21:17;22.50;62.20
56300;DHT22;42209;6.376;-10.782;2023-05-20T07:24:05;22.20;62.90
56300;DHT22;42209;6.376;-10.782;2023-05-20T07:26:36;22.30;67.40
56300;DHT22;42209;6.376;-10.782;2023-05-20T07:29:05;22.50;69.80
56300;DHT22;42209;6.376;-10.782;2023-05-20T07:31:33;22.60;71.20
56300;DHT22;42209;6.376;-10.782;2023-05-20T07:34:01;22.80;72.70
56300;DHT22;42209;6.376;-10.782;2023-05-20T07:36:32;22.90;73.50
56300;DHT22;42209;6.376;-10.782;2023-05-20T07:39:04;22.90;69.30
56300;DHT22;42209;6.376;-10.782;2023-05-20T07:41:39;22.60;64.50
56300;DHT22;42209;6.376;-10.782;2023-05-20T07:44:08;22.30;62.90
56300;DHT22;42209;6.376;-10.782;2023-05-20T07:46:39;22.30;67.50
56300;DHT22;42209;6.376;-10.782;2023-05-20T07:49:10;22.50;69.60
56300;DHT22;42209;6.376;-10.782;2023-05-20T07:51:41;22.60;71.20
56300;DHT22;42209;6.376;-10.782;2023-05-20T07:54:10;22.70;72.00
56300;DHT22;42209;6.376;-10.782;2023-05-20T07:56:38;22.70;72.10
56300;DHT22;42209;6.376;-10.782;2023-05-20T07:59:11;22.70;67.10
56300;DHT22;42209;6.376;-10.782;2023-05-20T08:01:45;22.40;60.50
56300;DHT22;42209;6.376;-10.782;2023-05-20T08:04:18;22.10;61.50
56300;DHT22;42209;6.376;-10.782;2023-05-20T08:06:52;22.10;65.00
56300;DHT22;42209;6.376;-10.782;2023-05-20T08:09:34;22.40;67.20
56300;DHT22;42209;6.376;-10.782;2023-05-20T08:12:16;22.50;69.60
56300;DHT22;42209;6.376;-10.782;2023-05-20T08:14:49;22.70;71.20
56300;DHT22;42209;6.376;-10.782;2023-05-20T08:17:17;22.80;72.80
56300;DHT22;42209;6.376;-10.782;2023-05-20T08:23:36;22.30;61.70
56300;DHT22;42209;6.376;-10.782;2023-05-20T08:26:16;22.50;65.50
56300;DHT22;42209;6.376;-10.782;2023-05-20T08:28:50;22.50;68.40
56300;DHT22;42209;6.376;-10.782;2023-05-20T08:31:33;22.70;70.50
56300;DHT22;42209;6.376;-10.782;2023-05-20T08:34:05;22.70;72.30
56300;DHT22;42209;6.376;-10.782;2023-05-20T08:36:39;22.80;70.80
56300;DHT22;42209;6.376;-10.782;2023-05-20T08:39:10;22.60;64.70
56300;DHT22;42209;6.376;-10.782;2023-05-20T08:42:19;22.20;61.60
56300;DHT22;42209;6.376;-10.782;2023-05-20T08:44:54;22.10;66.90
56300;DHT22;42209;6.376;-10.782;2023-05-20T08:47:31;22.40;69.50
56300;DHT22;42209;6.376;-10.782;2023-05-20T08:49:59;22.60;71.20
56300;DHT22;42209;6.376;-10.782;2023-05-20T08:52:31;22.70;73.40
56300;DHT22;42209;6.376;-10.782;2023-05-20T08:55:08;22.80;74.30
56300;DHT22;42209;6.376;-10.782;2023-05-20T08:57:39;22.70;67.50
56300;DHT22;42209;6.376;-10.782;2023-05-20T09:00:13;22.50;64.00
56300;DHT22;42209;6.376;-10.782;2023-05-20T09:02:45;22.20;62.90
56300;DHT22;42209;6.376;-10.782;2023-05-20T09:05:17;22.30;67.40
56300;DHT22;42209;6.376;-10.782;2023-05-20T09:07:47;22.50;69.60
56300;DHT22;42209;6.376;-10.782;2023-05-20T09:10:17;22.60;71.40
56300;DHT22;42209;6.376;-10.782;2023-05-20T09:12:50;22.70;73.40
56300;DHT22;42209;6.376;-10.782;2023-05-20T09:15:20;22.80;73.00
56300;DHT22;42209;6.376;-10.782;2023-05-20T09:17:49;22.60;65.90
56300;DHT22;42209;6.376;-10.782;2023-05-20T09:23:09;22.10;65.50
56300;DHT22;42209;6.376;-10.782;2023-05-20T09:25:39;22.30;68.50
56300;DHT22;42209;6.376;-10.782;2023-05-20T09:28:22;22.50;70.70
56300;DHT22;42209;6.376;-10.782;2023-05-20T09:30:59;22.70;72.80
56300;DHT22;42209;6.376;-10.782;2023-05-20T09:33:30;22.80;74.30
56300;DHT22;42209;6.376;-10.782;2023-05-20T09:36:18;22.80;70.30
56300;DHT22;42209;6.376;-10.782;2023-05-20T09:39:40;22.50;64.40
56300;DHT22;42209;6.376;-10.782;2023-05-20T09:42:24;22.10;66.00
56300;DHT22;42209;6.376;-10.782;2023-05-20T09:44:54;22.30;69.20
56300;DHT22;42209;6.376;-10.782;2023-05-20T09:47:23;22.50;71.20
56300;DHT22;42209;6.376;-10.782;2023-05-20T09:49:53;22.70;72.80
56300;DHT22;42209;6.376;-10.782;2023-05-20T09:52:23;22.80;74.10
56300;DHT22;42209;6.376;-10.782;2023-05-20T09:54:52;22.70;67.70
56300;DHT22;42209;6.376;-10.782;2023-05-20T09:57:23;22.40;63.00
56300;DHT22;42209;6.376;-10.782;2023-05-20T09:59:58;22.20;62.60
56300;DHT22;42209;6.376;-10.782;2023-05-20T10:02:27;22.30;67.30
56300;DHT22;42209;6.376;-10.782;2023-05-20T10:04:57;22.50;70.10
56300;DHT22;42209;6.376;-10.782;2023-05-20T10:16:21;22.60;65.30
56300;DHT22;42209;6.376;-10.782;2023-05-20T10:21:41;22.30;67.90
56300;DHT22;42209;6.376;-10.782;2023-05-20T10:27:08;22.70;72.50
56300;DHT22;42209;6.376;-10.782;2023-05-20T10:32:11;22.80;66.90
56300;DHT22;42209;6.376;-10.782;2023-05-20T10:34:51;22.50;62.40
56300;DHT22;42209;6.376;-10.782;2023-05-20T10:37:29;22.20;62.60
56300;DHT22;42209;6.376;-10.782;2023-05-20T10:40:07;22.30;67.10
56300;DHT22;42209;6.376;-10.782;2023-05-20T10:42:38;22.50;69.70
56300;DHT22;42209;6.376;-10.782;2023-05-20T10:45:08;22.70;71.90
56300;DHT22;42209;6.376;-10.782;2023-05-20T10:47:52;22.80;72.90
56300;DHT22;42209;6.376;-10.782;2023-05-20T10:53:11;22.60;64.60
56300;DHT22;42209;6.376;-10.782;2023-05-20T10:55:56;22.40;62.80
56300;DHT22;42209;6.376;-10.782;2023-05-20T10:58:24;22.10;66.60
56300;DHT22;42209;6.376;-10.782;2023-05-20T11:00:55;22.40;70.80
56300;DHT22;42209;6.376;-10.782;2023-05-20T11:03:24;22.60;73.60
56300;DHT22;42209;6.376;-10.782;2023-05-20T11:05:53;22.80;75.30
56300;DHT22;42209;6.376;-10.782;2023-05-20T11:08:33;22.60;69.10
56300;DHT22;42209;6.376;-10.782;2023-05-20T11:11:14;22.10;65.70
56300;DHT22;42209;6.376;-10.782;2023-05-20T11:13:59;21.80;62.70
56300;DHT22;42209;6.376;-10.782;2023-05-20T11:16:30;21.60;60.20
56300;DHT22;42209;6.376;-10.782;2023-05-20T11:19:15;21.60;64.10
56300;DHT22;42209;6.376;-10.782;2023-05-20T11:21:47;22.00;66.90
56300;DHT22;42209;6.376;-10.782;2023-05-20T11:24:27;22.50;69.60
56300;DHT22;42209;6.376;-10.782;2023-05-20T11:27:27;22.60;66.60
56300;DHT22;42209;6.376;-10.782;2023-05-20T11:29:56;22.10;63.20
56300;DHT22;42209;6.376;-10.782;2023-05-20T11:32:35;21.70;61.00
56300;DHT22;42209;6.376;-10.782;2023-05-20T11:35:05;21.50;64.70
56300;DHT22;42209;6.376;-10.782;2023-05-20T11:37:35;22.20;64.30
56300;DHT22;42209;6.376;-10.782;2023-05-20T11:40:05;22.80;64.30
56300;DHT22;42209;6.376;-10.782;2023-05-20T11:42:42;23.20;65.00
56300;DHT22;42209;6.376;-10.782;2023-05-20T11:45:13;23.40;65.10
56300;DHT22;42209;6.376;-10.782;2023-05-20T11:47:41;23.60;65.30
56300;DHT22;42209;6.376;-10.782;2023-05-20T11:50:15;23.70;67.10
56300;DHT22;42209;6.376;-10.782;2023-05-20T11:52:44;23.90;68.20
56300;DHT22;42209;6.376;-10.782;2023-05-20T11:55:16;24.00;68.00
56300;DHT22;42209;6.376;-10.782;2023-05-20T11:57:44;24.00;67.60
56300;DHT22;42209;6.376;-10.782;2023-05-20T12:00:13;24.00;67.80
56300;DHT22;42209;6.376;-10.782;2023-05-20T12:02:43;24.10;67.50
56300;DHT22;42209;6.376;-10.782;2023-05-20T12:05:13;24.00;67.40
56300;DHT22;42209;6.376;-10.782;2023-05-20T12:07:42;24.10;67.20
56300;DHT22;42209;6.376;-10.782;2023-05-20T12:10:11;24.10;64.90
56300;DHT22;42209;6.376;-10.782;2023-05-20T12:12:40;24.10;64.30
56300;DHT22;42209;6.376;-10.782;2023-05-20T12:15:10;24.10;63.70
56300;DHT22;42209;6.376;-10.782;2023-05-20T12:17:50;24.20;63.90
56300;DHT22;42209;6.376;-10.782;2023-05-20T12:20:39;24.20;63.00
56300;DHT22;42209;6.376;-10.782;2023-05-20T12:23:14;24.20;62.60
56300;DHT22;42209;6.376;-10.782;2023-05-20T12:26:01;24.20;61.90
56300;DHT22;42209;6.376;-10.782;2023-05-20T12:28:43;24.20;61.70
56300;DHT22;42209;6.376;-10.782;2023-05-20T12:31:14;24.30;60.40
56300;DHT22;42209;6.376;-10.782;2023-05-20T12:33:47;24.30;59.40
56300;DHT22;42209;6.376;-10.782;2023-05-20T12:36:17;24.30;59.30
56300;DHT22;42209;6.376;-10.782;2023-05-20T12:38:47;24.30;59.10
56300;DHT22;42209;6.376;-10.782;2023-05-20T12:41:36;24.40;59.50
56300;DHT22;42209;6.376;-10.782;2023-05-20T12:44:21;24.30;59.50
56300;DHT22;42209;6.376;-10.782;2023-05-20T12:46:50;24.40;58.80
56300;DHT22;42209;6.376;-10.782;2023-05-20T12:49:34;24.40;58.70
56300;DHT22;42209;6.376;-10.782;2023-05-20T12:52:04;24.40;58.60
56300;DHT22;42209;6.376;-10.782;2023-05-20T12:54:45;24.40;58.10
56300;DHT22;42209;6.376;-10.782;2023-05-20T12:57:15;24.40;58.60
56300;DHT22;42209;6.376;-10.782;2023-05-20T12:59:44;24.40;57.60
56300;DHT22;42209;6.376;-10.782;2023-05-20T13:02:17;24.40;56.80
56300;DHT22;42209;6.376;-10.782;2023-05-20T13:04:48;24.40;55.40
56300;DHT22;42209;6.376;-10.782;2023-05-20T13:07:19;24.40;55.20
56300;DHT22;42209;6.376;-10.782;2023-05-20T13:09:48;24.50;53.00
56300;DHT22;42209;6.376;-10.782;2023-05-20T13:12:16;24.60;51.70
56300;DHT22;42209;6.376;-10.782;2023-05-20T13:14:45;24.60;50.50
56300;DHT22;42209;6.376;-10.782;2023-05-20T13:17:13;24.60;51.60
56300;DHT22;42209;6.376;-10.782;2023-05-20T13:19:41;24.60;51.00
56300;DHT22;42209;6.376;-10.782;2023-05-20T13:22:10;24.70;50.90
56300;DHT22;42209;6.376;-10.782;2023-05-20T13:24:39;24.70;50.80
56300;DHT22;42209;6.376;-10.782;2023-05-20T13:27:08;24.80;52.60
56300;DHT22;42209;6.376;-10.782;2023-05-20T13:29:36;24.80;54.10
56300;DHT22;42209;6.376;-10.782;2023-05-20T13:32:04;24.80;53.40
56300;DHT22;42209;6.376;-10.782;2023-05-20T13:34:33;24.90;52.90
56300;DHT22;42209;6.376;-10.782;2023-05-20T13:37:04;24.90;52.50
56300;DHT22;42209;6.376;-10.782;2023-05-20T13:39:33;24.90;53.40
56300;DHT22;42209;6.376;-10.782;2023-05-20T13:42:02;24.90;53.80
56300;DHT22;42209;6.376;-10.782;2023-05-20T13:44:31;24.90;54.60
56300;DHT22;42209;6.376;-10.782;2023-05-20T13:46:59;24.90;52.10
56300;DHT22;42209;6.376;-10.782;2023-05-20T13:49:29;25.00;53.70
56300;DHT22;42209;6.376;-10.782;2023-05-20T13:51:58;25.00;49.90
56300;DHT22;42209;6.376;-10.782;2023-05-20T13:54:26;25.00;50.10
56300;DHT22;42209;6.376;-10.782;2023-05-20T13:56:58;25.00;49.40
56300;DHT22;42209;6.376;-10.782;2023-05-20T13:59:27;25.00;53.10
56300;DHT22;42209;6.376;-10.782;2023-05-20T14:01:56;25.00;49.30
56300;DHT22;42209;6.376;-10.782;2023-05-20T14:04:26;25.00;48.90
56300;DHT22;42209;6.376;-10.782;2023-05-20T14:06:55;25.10;48.80
56300;DHT22;42209;6.376;-10.782;2023-05-20T14:09:25;25.10;51.10
56300;DHT22;42209;6.376;-10.782;2023-05-20T14:11:53;25.20;52.00
56300;DHT22;42209;6.376;-10.782;2023-05-20T14:14:23;25.20;52.50
56300;DHT22;42209;6.376;-10.782;2023-05-20T14:16:51;25.20;52.30
56300;DHT22;42209;6.376;-10.782;2023-05-20T14:19:21;25.20;53.80
56300;DHT22;42209;6.376;-10.782;2023-05-20T14:21:50;25.30;53.60
56300;DHT22;42209;6.376;-10.782;2023-05-20T14:24:19;25.30;54.70
56300;DHT22;42209;6.376;-10.782;2023-05-20T14:26:50;25.30;54.90
56300;DHT22;42209;6.376;-10.782;2023-05-20T14:29:19;25.40;56.20
56300;DHT22;42209;6.376;-10.782;2023-05-20T14:31:47;25.40;56.20
56300;DHT22;42209;6.376;-10.782;2023-05-20T14:34:16;25.40;56.60
56300;DHT22;42209;6.376;-10.782;2023-05-20T14:36:44;25.40;57.20
56300;DHT22;42209;6.376;-10.782;2023-05-20T14:39:13;25.50;58.30
56300;DHT22;42209;6.376;-10.782;2023-05-20T14:41:41;25.50;57.60
56300;DHT22;42209;6.376;-10.782;2023-05-20T14:44:09;25.50;57.90
56300;DHT22;42209;6.376;-10.782;2023-05-20T14:46:38;25.50;58.60
56300;DHT22;42209;6.376;-10.782;2023-05-20T14:49:06;25.50;59.00
56300;DHT22;42209;6.376;-10.782;2023-05-20T14:51:35;25.50;58.60
56300;DHT22;42209;6.376;-10.782;2023-05-20T14:54:04;25.50;56.50
56300;DHT22;42209;6.376;-10.782;2023-05-20T14:56:32;25.40;56.40
56300;DHT22;42209;6.376;-10.782;2023-05-20T14:59:01;25.50;53.80
56300;DHT22;42209;6.376;-10.782;2023-05-20T15:01:30;25.40;54.70
56300;DHT22;42209;6.376;-10.782;2023-05-20T15:04:00;25.40;51.10
56300;DHT22;42209;6.376;-10.782;2023-05-20T15:06:29;25.40;53.00
56300;DHT22;42209;6.376;-10.782;2023-05-20T15:08:58;25.40;51.80
56300;DHT22;42209;6.376;-10.782;2023-05-20T15:11:26;25.50;51.70
56300;DHT22;42209;6.376;-10.782;2023-05-20T15:13:55;25.40;50.90
56300;DHT22;42209;6.376;-10.782;2023-05-20T15:16:24;25.50;52.10
56300;DHT22;42209;6.376;-10.782;2023-05-20T15:18:53;25.40;48.30
56300;DHT22;42209;6.376;-10.782;2023-05-20T15:21:21;25.50;49.00
56300;DHT22;42209;6.376;-10.782;2023-05-20T15:23:50;25.50;50.50
56300;DHT22;42209;6.376;-10.782;2023-05-20T15:26:19;25.60;53.00
56300;DHT22;42209;6.376;-10.782;2023-05-20T15:28:48;25.50;53.00
56300;DHT22;42209;6.376;-10.782;2023-05-20T15:31:17;25.60;52.80
56300;DHT22;42209;6.376;-10.782;2023-05-20T15:33:46;25.60;52.50
56300;DHT22;42209;6.376;-10.782;2023-05-20T15:36:15;25.50;50.60
56300;DHT22;42209;6.376;-10.782;2023-05-20T15:38:44;25.60;50.40
56300;DHT22;42209;6.376;-10.782;2023-05-20T15:41:13;25.60;49.80
56300;DHT22;42209;6.376;-10.782;2023-05-20T15:43:42;25.60;49.70
56300;DHT22;42209;6.376;-10.782;2023-05-20T15:46:10;25.60;48.70
56300;DHT22;42209;6.376;-10.782;2023-05-20T15:48:39;25.60;50.30
56300;DHT22;42209;6.376;-10.782;2023-05-20T15:51:08;25.60;48.80
56300;DHT22;42209;6.376;-10.782;2023-05-20T15:53:36;25.60;46.80
56300;DHT22;42209;6.376;-10.782;2023-05-20T15:56:09;25.50;47.70
56300;DHT22;42209;6.376;-10.782;2023-05-20T15:58:38;25.50;47.10
56300;DHT22;42209;6.376;-10.782;2023-05-20T16:01:07;25.50;46.10
56300;DHT22;42209;6.376;-10.782;2023-05-20T16:03:36;25.50;46.30
56300;DHT22;42209;6.376;-10.782;2023-05-20T16:06:05;25.50;46.50
56300;DHT22;42209;6.376;-10.782;2023-05-20T16:08:34;25.50;48.40
56300;DHT22;42209;6.376;-10.782;2023-05-20T16:11:02;25.60;48.20